Clare, Iowa
Current Conditions -  °F | °C
As of 4:35 PM on Sunday 23 Nov 2014 (Local Time) from KFOD Reporting Station
Overcast Overcast  
Wind Chill: 37°   Ceiling: 1500
Heat Index: 43°   Visibility: 10mi
Dew Point: 37°   Wind: 9mph
Humidity: 81%   Direction: 330°NNW
Pressure: 29.43"   Gusts: 16mph
Location:  42.59°N, 94.35°W
Report Text: KFOD 232235Z AUTO 33008G14KT 10SM BKN015 OVC060 06/03 A2943 RMK AO1
Loading
Personal Weather Stations






























Interactive Weather Map New forecast layout! Learn more

10-Day Weather Forecast

Advertisements
Track Severe Weather on mobile